Marble, MN

10:35 PM CDT on October 01, 2014 (GMT -0500)
Chisholm-hibbing | Change Station
CLOSE
Current Station
Airport
Location: Hibbing,
Elevation: 1352 ft
Nearby Weather Stations

Elev 1352 ft 47.39 °N, 92.84 °W | Updated 34 minutes ago

Overcast
Overcast
51 °F
Feels Like 51 °F
N
4
Wind Variable Wind from SSW

Today
High -- | Low -- °F
--% Chance of Precip.
Yesterday
High -- | Low -- °F
Precip. -- in
7:12 AM 6:52 PM
First Quarter, 54% visible
Pressure 29.80 in
Visibility 2.5 miles
Clouds Overcast 300 ft
Dew Point 49 °F
Humidity 92%
Rainfall 0.06 in
Snow Depth Not available.
UV 0 out of 12
Pollen 2.60 out of 12
Air Quality Not available.
Flu Activity Not available.
SPECI KHIB 020301Z AUTO 21003KT 2 1/2SM BR OVC003 11/09 A2980 RMK AO2 T01060094

More Conditions Fewer Conditions

Pressure 29.80 in
Visibility 2.5 miles
Clouds Overcast 300 ft
Dew Point 49 °F
Humidity 92%
Rainfall 0.06 in
Snow Depth Not available.
UV 0 out of 12
Pollen 2.60 out of 12
Air Quality Not available.
Flu Activity Not available.
SPECI KHIB 020301Z AUTO 21003KT 2 1/2SM BR OVC003 11/09 A2980 RMK AO2 T01060094

More Conditions Fewer Conditions

10-Day Weather Forecast

Almanac

Astronomy

Oct. 01, 2014 Rise Set
Actual Time 7:12 AM CDT 6:52 PM CDT
Civil Twilight 6:41 AM CDT 7:23 PM CDT
Nautical Twilight 6:06 AM CDT 7:58 PM CDT
Astronomical Twilight 5:29 AM CDT 8:34 PM CDT
Moon 2:30 PM CDT (10/1) No Moon Set
Length of Visible Light 12h 41m
Length of Day
11h 40m
Tomorrow will be 3m 22s shorter.
First Quarter, 54% of the Moon is Illuminated
Today
First Quarter
Oct 8
Full
Oct 15
Last Quarter
Oct 23
New
Oct 30
First Quarter

Today's Extremes

State Highs State Lows

Community

WunderPhotos

Upload Photos

1,758,162 photos uploaded!

Nearby

Snow Depth

Station Depth Elevation
No new snow has been reported.

Earthquake Activity

City Distance Mag. Time & Date
No recent earthquake activity has been reported nearby.
Minimum magnitude displayed is 2.5.

Coastal Water Temperatures

Place Temperature
No Stations Reporting

Nearby Weather Stations